Date,TemperatureHighF,TemperatureAvgF,TemperatureLowF,DewpointHighF,DewpointAvgF,DewpointLowF,HumidityHigh,HumidityAvg,HumidityLow,PressureMaxIn,PressureMinIn,WindSpeedMaxMPH,WindSpeedAvgMPH,GustSpeedMaxMPH,PrecipitationSumIn
2014-2-1,27.0,12.1,7.0,20.0,6.8,-99.9,89,83,60,0.00,40.00,3,0,9,0.01
2014-2-2,15.0,9.2,1.0,8.0,4.0,-4.0,85,79,70,0.00,40.00,0,0,6,0.01
2014-2-3,10.0,0.8,-5.0,2.0,-5.5,-11.0,78,74,60,0.00,40.00,0,0,10,0.00
2014-2-4,6.0,-4.3,-11.0,-3.0,-12.2,-18.0,75,68,48,0.00,40.00,0,0,7,0.00
2014-2-5,8.0,-7.4,-14.0,-7.0,-17.2,-22.0,70,62,39,0.00,40.00,4,1,14,0.00
2014-2-6,6.0,-5.2,-13.0,-9.0,-16.0,-22.0,74,59,44,0.00,40.00,6,3,17,0.00
2014-2-7,18.0,2.8,-5.0,-2.0,-6.3,-11.0,78,67,39,0.00,40.00,3,1,9,0.00
2014-2-8,18.0,1.4,-10.0,5.0,-7.1,-17.0,76,68,45,0.00,40.00,6,2,16,0.00
2014-2-9,19.0,14.1,3.0,16.0,10.0,-5.0,91,84,69,0.00,40.00,6,2,16,0.00
2014-2-10,27.0,22.9,18.0,26.0,21.6,16.0,98,94,91,0.00,40.00,8,5,27,0.00
2014-2-11,27.0,21.5,16.0,23.0,16.1,10.0,96,80,60,0.00,40.00,11,7,37,0.00
2014-2-12,31.0,25.9,19.0,30.0,23.4,16.0,100,90,70,0.00,40.00,11,7,33,0.00
2014-2-13,29.0,23.0,16.0,26.0,21.2,14.0,96,92,83,0.00,40.00,9,6,27,0.00
2014-2-14,32.0,23.6,18.0,29.0,21.3,15.0,97,91,81,0.00,40.00,10,6,23,0.00
2014-2-15,26.0,22.1,18.0,24.0,17.9,-99.9,97,88,76,0.00,40.00,10,6,29,0.00
2014-2-16,24.0,18.9,15.0,21.0,15.8,12.0,94,87,76,0.00,40.00,11,7,45,0.00
2014-2-17,27.0,22.9,19.0,27.0,21.7,17.0,100,95,91,0.00,40.00,6,3,15,0.00
2014-2-18,22.0,21.6,21.0,21.0,20.2,19.0,95,94,93,0.00,40.00,11,6,43,0.00
2014-2-19,23.0,21.0,20.0,22.0,19.3,18.0,95,93,92,0.00,40.00,11,5,31,0.00
2014-2-20,22.0,19.7,17.0,21.0,18.0,15.0,95,93,91,0.00,40.00,14,7,31,0.00
2014-2-21,18.0,16.9,16.0,16.0,14.8,13.0,92,91,89,0.00,40.00,7,3,16,0.00
2014-2-22,18.0,16.2,15.0,16.0,12.3,-99.9,91,88,88,0.00,40.00,2,0,5,0.00
2014-2-23,19.0,18.5,18.0,17.0,16.5,16.0,91,91,90,0.00,40.00,2,0,6,0.00
2014-2-24,20.0,19.6,19.0,18.0,17.6,17.0,92,91,90,0.00,40.00,4,1,8,0.00
2014-2-25,23.0,21.1,20.0,22.0,19.5,18.0,95,93,91,0.00,40.00,7,2,14,0.00
2014-2-26,25.0,23.4,22.0,24.0,22.4,21.0,97,95,94,0.00,40.00,5,3,11,0.13
2014-2-27,28.0,26.4,25.0,28.0,26.0,24.0,100,99,97,0.00,40.00,2,0,6,0.27
2014-2-28,29.0,27.8,26.0,29.0,27.8,26.0,100,100,99,0.00,40.00,1,0,11,0.02